Latest Weather Observations for Kilmore Gap

IDV60801

Issued at 8:02 pm EST Saturday 5 September 2015 (issued every 30 minutes, with the page automatically refreshed every 10 minutes)

About weather observations | Map of weather stations | Latest weather observations for VIC | Other Formats
Station Details ID: 088162 Name: KILMORE GAP Lat: -37.38 Lon: 144.97 Height: 527.8 m
Data from the previous 72 hours. | See also: Recent months at Kilmore Gap
Date/Time
EST
Temp
°C
App
Temp
°C
Dew
Point
Rel
Hum
%
Delta-T
°C
Wind Press
QNH
hPa
Press
MSL
hPa
Rain
since 9 am
mm
Dir
 
Spd
km/h
Gust
km/h
Spd
kts
Gust
kts
05/08:00pm 5.9 1.9 4.7 92 0.5 S 15 20 8 11 1022.4 - 0.0
05/07:30pm 5.7 2.0 4.3 91 0.6 S 13 17 7 9 1022.3 - 0.0
05/07:00pm 6.2 2.5 4.7 90 0.7 S 13 19 7 10 1022.1 - 0.0
05/06:30pm 6.8 2.8 5.0 88 0.8 S 15 20 8 11 1021.9 - 0.0
05/06:00pm 7.3 3.7 5.1 86 1.0 S 13 19 7 10 1021.8 1022.3 0.0
05/05:30pm 8.2 4.6 5.0 80 1.5 S 13 19 7 10 1021.5 - 0.0
05/05:00pm 8.8 5.3 5.4 79 1.6 S 13 20 7 11 1022.0 - 0.0
05/04:30pm 9.9 6.2 6.1 77 1.8 S 15 24 8 13 1021.9 - 0.0
05/04:00pm 9.5 5.2 5.3 75 2.0 SSE 17 24 9 13 1021.9 - 0.0
05/03:30pm 10.3 6.6 6.5 77 1.8 S 15 24 8 13 1022.2 - 0.0
05/03:00pm 10.0 6.6 6.0 76 1.9 S 13 19 7 10 1022.0 1022.6 0.0
05/02:30pm 10.2 6.1 6.4 77 1.8 S 17 26 9 14 1021.9 - 0.0
05/02:00pm 9.2 5.2 6.6 84 1.2 S 17 24 9 13 1022.2 - 0.0
05/01:51pm 9.4 5.9 7.0 85 1.2 S 15 22 8 12 1022.3 - 0.0
05/01:30pm 9.6 5.5 6.3 80 1.6 S 17 24 9 13 1022.4 - 0.0
05/01:24pm 9.8 5.7 6.3 79 1.7 S 17 24 9 13 1022.7 - 0.0
05/01:00pm 9.4 5.4 6.5 82 1.4 S 17 24 9 13 1022.9 - 0.0
05/12:30pm 9.6 5.5 6.1 79 1.7 S 17 24 9 13 1023.4 - 0.0
05/12:00pm 8.6 4.1 6.2 85 1.1 S 19 26 10 14 1023.7 1024.3 0.0
05/11:30am 8.7 4.2 6.3 85 1.1 S 19 26 10 14 1023.7 - 0.0
05/11:00am 8.7 4.4 6.8 88 0.9 S 19 26 10 14 1023.9 - 0.0
05/10:30am 8.3 4.2 6.3 87 0.9 S 17 26 9 14 1024.2 - 0.0
05/10:00am 7.9 3.7 5.9 87 0.9 S 17 28 9 15 1024.3 - 0.0
05/09:30am 7.3 3.1 5.6 89 0.8 S 17 24 9 13 1024.6 - 0.0
05/09:03am 7.2 3.2 5.0 86 1.0 S 15 22 8 12 1024.4 - 0.0
05/09:00am 7.4 3.5 5.5 88 0.9 S 15 22 8 12 1024.3 1024.9 0.0
05/08:30am 7.0 3.5 5.3 89 0.8 S 13 20 7 11 1024.6 - 0.0
05/08:00am 6.5 2.1 4.5 87 0.9 S 17 24 9 13 1024.2 - 0.0
05/07:30am 6.1 1.6 4.3 88 0.8 S 17 24 9 13 1024.0 - 0.0
05/07:00am 5.7 1.3 4.5 92 0.5 S 17 24 9 13 1023.7 - 0.0
05/06:57am 5.7 1.3 4.5 92 0.5 SSW 17 24 9 13 1023.6 - 0.0
05/06:30am 5.5 1.5 4.8 95 0.3 S 15 20 8 11 1023.4 - 0.0
05/06:00am 5.6 1.2 4.6 93 0.4 S 17 24 9 13 1023.2 1023.7 0.0
05/05:45am 5.5 1.1 4.5 93 0.4 S 17 22 9 12 1023.0 - 0.0
05/05:30am 5.6 1.1 4.4 92 0.5 S 17 26 9 14 1022.9 - 0.0
05/05:00am 5.5 1.0 4.2 91 0.6 S 17 22 9 12 1022.7 - 0.0
05/04:30am 5.6 1.0 3.9 89 0.7 S 17 24 9 13 1022.4 - 0.0
05/04:07am 5.3 0.8 4.0 91 0.6 S 17 20 9 11 1022.2 - 0.0
05/04:00am 5.3 0.8 4.0 91 0.6 S 17 24 9 13 1022.1 - 0.0
05/03:30am 5.3 1.2 4.3 93 0.4 S 15 22 8 12 1022.2 - 0.0
05/03:26am 5.3 1.2 4.3 93 0.4 S 15 22 8 12 1022.2 - 0.0
05/03:00am 5.1 0.6 4.2 94 0.4 S 17 24 9 13 1022.6 1023.1 0.0
05/02:30am 5.1 0.2 4.2 94 0.4 S 19 24 10 13 1022.8 - 0.0
05/02:00am 5.2 0.3 4.2 93 0.4 SSW 19 24 10 13 1023.1 - 0.0
05/01:30am 5.2 0.3 4.2 93 0.4 S 19 28 10 15 1023.3 - 0.0
05/01:00am 5.2 0.7 4.2 93 0.4 S 17 22 9 12 1023.6 - 0.0
05/12:30am 5.5 0.6 4.0 90 0.7 SSW 19 24 10 13 1023.6 - 0.0
05/12:00am 5.8 1.0 4.4 91 0.6 SSW 19 28 10 15 1023.7 1024.3 0.0
 
Date/Time
EST
Temp
°C
App
Temp
°C
Dew
Point
Rel
Hum
%
Delta-T
°C
Wind Press
QNH
hPa
Press
MSL
hPa
Rain
since 9 am
mm
Dir
 
Spd
km/h
Gust
km/h
Spd
kts
Gust
kts
04/11:30pm 5.9 1.3 5.5 97 0.2 SSW 19 24 10 13 1024.0 - 0.0
04/11:00pm 5.9 1.6 5.2 95 0.3 S 17 26 9 14 1024.1 - 0.0
04/10:30pm 5.8 1.0 4.9 94 0.4 S 19 24 10 13 1024.2 - 0.0
04/10:00pm 5.7 0.9 4.8 94 0.4 S 19 24 10 13 1024.2 - 0.0
04/09:56pm 5.7 0.9 4.8 94 0.4 S 19 22 10 12 1024.2 - 0.0
04/09:30pm 5.6 0.8 4.6 93 0.4 S 19 24 10 13 1024.1 - 0.0
04/09:00pm 5.6 0.7 4.2 91 0.6 S 19 26 10 14 1024.0 1024.6 0.0
04/08:30pm 5.3 0.1 3.6 89 0.7 S 20 24 11 13 1024.0 - 0.0
04/08:00pm 5.7 1.1 3.5 86 1.0 S 17 20 9 11 1023.9 - 0.0
04/07:30pm 6.1 1.4 3.4 83 1.2 S 17 22 9 12 1023.8 - 0.0
04/07:00pm 6.5 1.9 3.7 82 1.2 S 17 20 9 11 1023.6 - 0.0
04/06:30pm 6.3 1.2 3.3 81 1.3 S 19 24 10 13 1023.4 - 0.0
04/06:00pm 6.3 1.6 3.1 80 1.4 S 17 22 9 12 1023.1 1023.6 0.0
04/05:30pm 6.9 1.8 3.2 77 1.6 S 19 22 10 12 1023.2 - 0.0
04/05:00pm 7.5 2.3 3.6 76 1.7 S 20 28 11 15 1023.1 - 0.0
04/04:30pm 7.7 2.6 3.9 77 1.7 S 20 32 11 17 1022.9 - 0.0
04/04:00pm 7.9 3.0 3.9 76 1.8 S 19 26 10 14 1022.9 - 0.0
04/03:30pm 8.3 3.4 4.3 76 1.8 S 19 32 10 17 1022.9 - 0.0
04/03:00pm 8.4 3.5 4.0 74 2.0 S 19 26 10 14 1022.8 1023.3 0.0
04/02:30pm 8.5 3.0 3.9 73 2.1 S 22 32 12 17 1022.7 - 0.0
04/02:00pm 9.1 3.5 3.5 68 2.5 S 22 32 12 17 1022.9 - 0.0
04/01:30pm 8.9 3.0 3.7 70 2.3 S 24 37 13 20 1023.1 - 0.0
04/01:00pm 8.9 3.0 3.7 70 2.3 S 24 35 13 19 1023.3 - 0.0
04/12:30pm 8.8 2.1 3.4 69 2.4 S 28 41 15 22 1023.6 - 0.0
04/12:00pm 8.3 2.6 2.8 68 2.4 S 22 33 12 18 1024.0 1024.6 0.0
04/11:30am 8.0 2.0 3.1 71 2.1 S 24 33 13 18 1024.2 - 0.0
04/11:00am 8.4 1.7 3.5 71 2.2 S 28 43 15 23 1024.1 - 0.0
04/10:30am 7.6 0.8 2.9 72 2.0 S 28 39 15 21 1024.2 - 0.0
04/10:00am 6.8 -1.0 1.9 71 2.1 S 32 43 17 23 1024.1 - 0.0
04/09:30am 6.4 -1.4 1.9 73 1.9 S 32 43 17 23 1024.0 - 0.0
04/09:00am 5.9 -1.5 2.0 76 1.6 S 30 39 16 21 1024.0 1024.6 0.0
04/08:30am 5.1 -2.0 3.4 89 0.7 S 30 43 16 23 1023.9 - 0.0
04/08:00am 4.3 -1.8 2.8 90 0.6 S 24 33 13 18 1023.9 - 0.0
04/07:30am 3.5 -2.6 2.9 96 0.3 S 24 33 13 18 1023.6 - 0.0
04/07:00am 3.4 -2.7 2.8 96 0.2 S 24 35 13 19 1023.3 - 0.0
04/06:30am 3.2 -2.9 2.6 96 0.2 S 24 32 13 17 1023.1 - 0.0
04/06:00am 3.2 -3.3 2.5 95 0.3 S 26 33 14 18 1022.8 1023.3 0.0
04/05:30am 3.6 -2.6 2.1 90 0.6 S 24 32 13 17 1022.7 - 0.0
04/05:00am 3.5 -2.7 2.0 90 0.6 S 24 35 13 19 1022.3 - 0.0
04/04:30am 3.2 -2.3 2.0 92 0.5 S 20 28 11 15 1022.1 - 0.0
04/04:00am 3.6 -2.0 1.3 85 0.9 S 20 28 11 15 1022.1 - 0.0
04/03:30am 4.1 -1.8 1.6 84 1.0 SSW 22 33 12 18 1022.0 - 0.0
04/03:00am 4.1 -1.6 2.9 92 0.5 S 22 30 12 16 1022.1 1022.7 0.0
04/02:30am 4.1 -1.2 3.1 93 0.4 S 20 32 11 17 1022.3 - 0.0
04/02:00am 4.6 -0.4 3.7 94 0.4 S 19 28 10 15 1022.4 - 0.0
04/01:30am 4.9 -0.1 4.6 98 0.1 S 20 28 11 15 1022.4 - 0.0
04/01:18am 4.7 -0.3 4.4 98 0.1 S 20 28 11 15 1022.2 - 0.0
04/01:10am 4.8 0.0 4.5 98 0.1 S 19 26 10 14 1022.3 - 0.0
04/01:00am 4.9 0.5 4.6 98 0.1 S 17 24 9 13 1022.3 - 0.0
04/12:30am 5.4 0.7 5.1 98 0.1 S 19 28 10 15 1022.2 - 0.0
04/12:00am 5.4 0.1 5.1 98 0.1 S 22 30 12 16 1022.0 1022.6 0.0
 
Date/Time
EST
Temp
°C
App
Temp
°C
Dew
Point
Rel
Hum
%
Delta-T
°C
Wind Press
QNH
hPa
Press
MSL
hPa
Rain
since 9 am
mm
Dir
 
Spd
km/h
Gust
km/h
Spd
kts
Gust
kts
03/11:30pm 5.6 0.7 5.3 98 0.1 S 20 30 11 16 1022.0 - 0.0
03/11:28pm 5.6 0.7 5.3 98 0.1 S 20 32 11 17 1022.0 - 0.0
03/11:00pm 5.0 0.0 4.4 96 0.3 S 20 33 11 18 1021.8 - 0.0
03/10:44pm 4.9 -0.2 4.3 96 0.3 S 20 28 11 15 1021.6 - 0.0
03/10:30pm 4.8 -0.3 4.2 96 0.3 S 20 28 11 15 1021.8 - 0.0
03/10:00pm 5.1 -0.7 4.5 96 0.3 S 24 32 13 17 1021.5 - 0.0
03/09:58pm 5.2 -0.9 4.6 96 0.3 S 26 32 14 17 1021.3 - 0.0
03/09:45pm 5.3 0.5 4.9 97 0.2 S 19 30 10 16 1021.4 - 0.0
03/09:30pm 5.5 -1.7 4.9 96 0.3 S 32 44 17 24 1021.0 - 0.0
03/09:24pm 5.6 -1.8 5.0 96 0.3 S 33 44 18 24 1020.4 - 0.0
03/09:00pm 6.1 1.3 5.8 98 0.1 S 20 30 11 16 1021.3 1021.8 0.0
03/08:30pm 6.3 2.5 5.9 97 0.2 S 15 22 8 12 1021.2 - 0.0
03/08:00pm 6.4 2.2 5.7 95 0.3 S 17 28 9 15 1021.0 - 0.0
03/07:30pm 6.5 1.9 5.6 94 0.4 S 19 26 10 14 1020.7 - 0.0
03/07:00pm 6.8 1.2 5.6 92 0.6 S 24 33 13 18 1020.1 - 0.0
03/06:30pm 7.0 1.1 5.8 92 0.6 S 26 39 14 21 1019.5 - 0.0
03/06:00pm 7.3 1.1 6.2 93 0.5 S 28 41 15 22 1018.9 1019.4 0.0
03/05:30pm 7.5 2.1 6.4 93 0.5 S 24 33 13 18 1018.6 - 0.0
03/05:00pm 7.6 2.1 6.1 90 0.7 S 24 43 13 23 1018.0 - 0.0
03/04:30pm 8.2 2.0 6.3 88 0.9 S 28 44 15 24 1017.1 - 0.0
03/04:00pm 8.4 2.4 7.0 91 0.7 S 28 41 15 22 1016.9 - 0.0
03/03:30pm 8.7 1.9 7.5 92 0.6 S 33 46 18 25 1016.2 - 0.0
03/03:00pm 8.8 2.5 7.6 92 0.6 S 30 48 16 26 1015.6 1016.1 0.0
03/02:57pm 8.8 2.6 7.7 93 0.5 S 30 48 16 26 1015.6 - 0.0
03/02:30pm 9.2 3.1 8.3 94 0.4 S 30 46 16 25 1015.2 - 0.0
03/02:09pm 9.2 2.8 8.6 96 0.3 S 32 50 17 27 1014.9 - 0.0
03/02:00pm 9.7 2.3 8.5 92 0.6 S 37 50 20 27 1014.8 - 0.0
03/01:45pm 9.6 3.0 7.9 89 0.8 S 32 50 17 27 1014.6 - 0.0
03/01:30pm 9.8 2.7 8.2 90 0.8 S 35 48 19 26 1014.6 - 0.0
03/01:00pm 9.8 2.8 8.6 92 0.6 S 35 48 19 26 1014.4 - 0.0
03/12:30pm 10.0 3.1 8.8 92 0.6 S 35 54 19 29 1014.3 - 0.0
03/12:12pm 9.7 3.3 8.6 93 0.6 S 32 52 17 28 1014.1 - 0.0
03/12:00pm 9.5 2.6 8.7 95 0.4 S 35 48 19 26 1014.1 1014.6 0.0
03/11:38am 9.5 1.0 8.6 94 0.5 S 43 61 23 33 1013.7 - 0.0
03/11:30am 9.7 1.2 8.5 92 0.6 S 43 56 23 30 1013.6 - 0.0
03/11:03am 10.1 3.5 8.5 90 0.8 S 33 59 18 32 1013.1 - 0.0
03/11:00am 10.1 3.2 8.7 91 0.7 S 35 50 19 27 1013.2 - 0.0
03/10:30am 9.9 2.9 8.3 90 0.8 S 35 50 19 27 1012.9 - 0.0
03/10:14am 9.2 2.7 8.1 93 0.5 S 32 50 17 27 1012.7 - 0.0
03/10:00am 9.2 2.7 8.0 92 0.6 S 32 48 17 26 1012.3 - 0.0
03/09:54am 9.1 2.9 8.0 93 0.5 S 30 48 16 26 1012.3 - 0.0
03/09:30am 8.8 3.0 8.0 95 0.4 S 28 43 15 23 1012.0 - 0.0
03/09:11am 9.2 4.0 8.9 98 0.2 S 26 37 14 20 1011.9 - 0.0
03/09:00am 8.6 3.3 8.3 98 0.1 S 26 39 14 21 1011.7 1012.1 7.4
03/08:41am 8.1 2.3 8.0 99 0.0 S 28 41 15 22 1011.3 - 7.4
03/08:32am 8.0 1.8 7.9 99 0.0 S 30 41 16 22 1011.0 - 7.4
03/08:30am 8.0 2.2 7.9 99 0.0 S 28 41 15 22 1010.9 - 7.4
03/08:00am 7.7 2.2 7.6 99 0.0 S 26 39 14 21 1010.3 - 7.4
03/07:30am 7.7 3.0 7.6 99 0.0 S 22 35 12 19 1009.7 - 7.4
03/07:00am 7.7 3.0 7.6 99 0.0 S 22 33 12 18 1009.2 - 7.4
03/06:30am 7.6 3.2 7.5 99 0.0 S 20 30 11 16 1008.8 - 7.4
03/06:00am 7.3 2.9 7.2 99 0.0 SSW 20 28 11 15 1008.4 1008.8 7.4
03/05:30am 7.4 3.5 7.3 99 0.0 SSW 17 22 9 12 1008.0 - 7.4
03/05:00am 7.3 3.0 7.0 98 0.1 S 19 28 10 15 1008.0 - 7.4
03/04:30am 7.4 3.1 7.1 98 0.1 S 19 26 10 14 1007.6 - 7.2
03/04:23am 7.4 3.5 7.1 98 0.1 S 17 24 9 13 1007.6 - 7.2
03/04:00am 7.4 3.9 7.1 98 0.1 S 15 20 8 11 1007.0 - 7.2
03/03:57am 7.4 3.9 7.1 98 0.1 S 15 19 8 10 1007.0 - 7.2
03/03:51am 7.4 4.3 7.1 98 0.1 S 13 19 7 10 1007.0 - 7.2
03/03:30am 7.4 4.3 7.1 98 0.1 S 13 17 7 9 1007.0 - 7.2
03/03:00am 7.5 4.0 7.2 98 0.1 S 15 19 8 10 1006.9 1007.2 7.2
03/02:53am 7.5 4.0 7.2 98 0.1 S 15 17 8 9 1006.9 - 7.0
03/02:30am 7.6 4.5 7.3 98 0.1 S 13 17 7 9 1006.8 - 6.8
03/02:00am 7.4 5.0 7.1 98 0.1 S 9 13 5 7 1006.8 - 6.8
03/01:30am 7.8 4.6 6.9 94 0.4 SSE 13 15 7 8 1006.8 - 6.8
03/01:00am 7.9 4.7 7.0 94 0.4 ESE 13 17 7 9 1006.7 - 6.8
03/12:30am 7.9 4.7 7.0 94 0.4 ENE 13 17 7 9 1006.9 - 6.8
03/12:00am 8.0 4.1 7.2 95 0.4 NE 17 24 9 13 1006.9 1007.2 6.6
 
Date/Time
EST
Temp
°C
App
Temp
°C
Dew
Point
Rel
Hum
%
Delta-T
°C
Wind Press
QNH
hPa
Press
MSL
hPa
Rain
since 9 am
mm
Dir
 
Spd
km/h
Gust
km/h
Spd
kts
Gust
kts
02/11:30pm 7.9 3.4 7.1 95 0.4 NE 20 24 11 13 1006.9 - 6.6
02/11:00pm 8.0 3.6 7.2 95 0.4 NE 20 28 11 15 1007.1 - 6.6
02/10:30pm 7.9 3.7 7.6 98 0.1 NNE 19 30 10 16 1007.1 - 6.6
02/10:00pm 8.2 3.1 7.8 97 0.2 ENE 24 32 13 17 1006.9 - 6.4
02/09:30pm 8.1 3.4 7.8 98 0.1 E 22 32 12 17 1007.3 - 6.4
02/09:00pm 8.1 3.8 7.8 98 0.1 ENE 20 24 11 13 1007.7 1008.1 6.0
02/08:30pm 8.1 4.0 7.8 98 0.1 NE 19 22 10 12 1007.9 - 5.4

Other Formats:

Comma delimited format used in spreadsheet applications
http://www.bom.gov.au/fwo/IDV60801/IDV60801.94860.axf

JavaScript Object Notation format (JSON) in row-major order
http://www.bom.gov.au/fwo/IDV60801/IDV60801.94860.json